Time;durP1;ratioP1;P1;durP2;ratioP2;P2;SDS_P1;SDS_P2;PMS_P1;PMS_P2;Temp;Humidity;BMP_temperature;BMP_pressure;BME280_temperature;BME280_humidity;BME280_pressure;Samples;Min_cycle;Max_cycle;Signal;HPM_P1;HPM_P2
2023/02/02 00:02:29;;;;;;;15.27;8.57;;;;;;;;;;4959819;29;20030;-91
2023/02/02 00:04:57;;;;;;;16.33;8.02;;;;;;;;;;4959090;28;20055;-90
2023/02/02 00:07:23;;;;;;;16.65;8.38;;;;;;;;;;4959572;29;20035;-91
2023/02/02 00:09:49;;;;;;;14.93;8.45;;;;;;;;;;4942405;29;20418;-90
2023/02/02 00:12:15;;;;;;;14.02;7.03;;;;;;;;;;4959267;28;20429;-90
2023/02/02 00:14:41;;;;;;;9.15;6.18;;;;;;;;;;4962503;29;20322;-90
2023/02/02 00:17:10;;;;;;;15.45;7.15;;;;;;;;;;4963019;29;20362;-90
2023/02/02 00:19:36;;;;;;;16.23;7.72;;;;;;;;;;4946535;29;20047;-89
2023/02/02 00:22:02;;;;;;;12.90;6.95;;;;;;;;;;4946144;29;20038;-90
2023/02/02 00:24:30;;;;;;;11.40;6.35;;;;;;;;;;4946227;29;20051;-90
2023/02/02 00:33:22;;;;;;;9.25;5.70;;;;;;;;;;4963131;29;20362;-90
2023/02/02 00:35:48;;;;;;;8.60;6.05;;;;;;;;;;4974013;28;20035;-89
2023/02/02 00:38:14;;;;;;;10.73;6.22;;;;;;;;;;4982480;28;20027;-90
2023/02/02 00:40:40;;;;;;;9.02;5.63;;;;;;;;;;4965193;28;20082;-91
2023/02/02 00:43:06;;;;;;;10.27;6.68;;;;;;;;;;4981964;28;20099;-89
2023/02/02 00:45:32;;;;;;;11.40;6.72;;;;;;;;;;4967485;28;20031;-90
2023/02/02 00:47:58;;;;;;;12.45;7.70;;;;;;;;;;4962526;28;20051;-92
2023/02/02 00:50:24;;;;;;;11.35;6.88;;;;;;;;;;4968293;28;20078;-90
2023/02/02 00:52:50;;;;;;;12.05;7.35;;;;;;;;;;4962345;28;20082;-90
2023/02/02 00:55:17;;;;;;;12.48;6.85;;;;;;;;;;4949138;28;20059;-91
2023/02/02 00:57:43;;;;;;;12.30;6.65;;;;;;;;;;4957888;28;20023;-89
2023/02/02 01:00:11;;;;;;;11.57;7.03;;;;;;;;;;4955556;28;20385;-90
2023/02/02 01:02:37;;;;;;;14.50;7.97;;;;;;;;;;4967692;28;20027;-90
2023/02/02 01:05:03;;;;;;;16.30;9.65;;;;;;;;;;4962455;28;20039;-89
2023/02/02 01:07:29;;;;;;;16.98;10.55;;;;;;;;;;4949696;28;20114;-90
2023/02/02 01:09:56;;;;;;;13.23;8.57;;;;;;;;;;4981298;28;20406;-92
2023/02/02 01:12:22;;;;;;;17.35;9.27;;;;;;;;;;4962982;28;20031;-91
2023/02/02 01:14:48;;;;;;;17.27;9.68;;;;;;;;;;4962451;29;20055;-92
2023/02/02 01:17:14;;;;;;;17.30;9.32;;;;;;;;;;4945279;29;20034;-93
2023/02/02 01:19:40;;;;;;;20.85;12.15;;;;;;;;;;4973750;28;20027;-92
2023/02/02 01:22:06;;;;;;;16.23;9.02;;;;;;;;;;4981324;28;20041;-92
2023/02/02 01:24:32;;;;;;;30.33;16.05;;;;;;;;;;4981324;28;20031;-91
2023/02/02 01:26:58;;;;;;;30.23;16.15;;;;;;;;;;4981256;28;20031;-91
2023/02/02 01:29:24;;;;;;;26.85;14.63;;;;;;;;;;4981275;28;20030;-90
2023/02/02 01:31:51;;;;;;;27.60;13.40;;;;;;;;;;4981278;28;20070;-90
2023/02/02 01:34:17;;;;;;;19.15;11.45;;;;;;;;;;4981671;28;20031;-91
2023/02/02 01:36:44;;;;;;;13.77;8.25;;;;;;;;;;4964085;28;20022;-91
2023/02/02 01:39:10;;;;;;;14.25;7.90;;;;;;;;;;4981207;28;20197;-90
2023/02/02 01:41:36;;;;;;;28.83;18.00;;;;;;;;;;4981361;28;20023;-91
2023/02/02 01:44:03;;;;;;;26.70;15.27;;;;;;;;;;4980984;28;20045;-90
2023/02/02 01:46:33;;;;;;;17.98;9.02;;;;;;;;;;4964304;28;20026;-90
2023/02/02 01:49:02;;;;;;;15.07;9.00;;;;;;;;;;4981194;28;20302;-90
2023/02/02 01:51:38;;;;;;;15.23;8.70;;;;;;;;;;4980807;28;20023;-90
2023/02/02 01:54:06;;;;;;;14.18;8.75;;;;;;;;;;4981046;28;20035;-91
2023/02/02 02:02:39;;;;;;;14.30;8.20;;;;;;;;;;4949282;28;20043;-90
2023/02/02 02:05:06;;;;;;;15.48;8.45;;;;;;;;;;4961026;29;20046;-90
2023/02/02 02:07:32;;;;;;;14.63;8.80;;;;;;;;;;4961367;29;20034;-89
2023/02/02 02:09:58;;;;;;;14.80;7.82;;;;;;;;;;4968516;28;20401;-90
2023/02/02 02:12:24;;;;;;;16.38;8.77;;;;;;;;;;4963681;28;20039;-91
2023/02/02 02:17:54;;;;;;;16.67;9.32;;;;;;;;;;4980497;28;20085;-91
2023/02/02 02:29:03;;;;;;;19.67;11.05;;;;;;;;;;4980085;28;20444;-89
2023/02/02 02:31:35;;;;;;;19.58;11.95;;;;;;;;;;4947777;28;20036;-90
2023/02/02 02:34:04;;;;;;;20.48;11.65;;;;;;;;;;4960699;29;20027;-90
2023/02/02 02:36:34;;;;;;;18.10;10.85;;;;;;;;;;4960493;28;20058;-89
2023/02/02 02:39:19;;;;;;;21.00;11.60;;;;;;;;;;4943781;29;20437;-90
2023/02/02 02:41:49;;;;;;;19.85;11.18;;;;;;;;;;4960546;29;20022;-90
2023/02/02 02:44:16;;;;;;;20.52;11.93;;;;;;;;;;4960912;29;20031;-91
2023/02/02 02:46:42;;;;;;;19.35;11.43;;;;;;;;;;4960720;29;20026;-91
2023/02/02 02:49:10;;;;;;;19.65;11.50;;;;;;;;;;4960482;29;20019;-90
2023/02/02 02:51:44;;;;;;;18.13;11.13;;;;;;;;;;4960844;28;20039;-91
2023/02/02 02:54:22;;;;;;;21.35;11.50;;;;;;;;;;4960702;29;20027;-91
2023/02/02 02:57:22;;;;;;;19.55;10.85;;;;;;;;;;4959207;28;20041;-90
2023/02/02 02:59:57;;;;;;;17.83;11.13;;;;;;;;;;4960592;28;20034;-93
2023/02/02 03:02:33;;;;;;;22.50;11.63;;;;;;;;;;4960196;29;20425;-91
2023/02/02 03:05:11;;;;;;;18.15;10.52;;;;;;;;;;4959362;28;20067;-91
2023/02/02 03:07:41;;;;;;;21.83;11.63;;;;;;;;;;4958616;29;20027;-93
2023/02/02 03:10:11;;;;;;;18.80;10.90;;;;;;;;;;4958383;28;20034;-90
2023/02/02 03:13:01;;;;;;;19.38;10.95;;;;;;;;;;4959647;28;20027;-92
2023/02/02 03:15:27;;;;;;;20.00;11.30;;;;;;;;;;4959271;28;20042;-91
2023/02/02 03:17:53;;;;;;;18.92;10.55;;;;;;;;;;4959426;29;20023;-90
2023/02/02 03:20:19;;;;;;;17.58;11.02;;;;;;;;;;4958236;29;20027;-92
2023/02/02 03:22:45;;;;;;;17.90;11.15;;;;;;;;;;4959354;29;20023;-92
2023/02/02 03:25:11;;;;;;;21.55;12.52;;;;;;;;;;4958205;28;20062;-91
2023/02/02 03:27:38;;;;;;;19.65;11.90;;;;;;;;;;4959440;29;20023;-91
2023/02/02 03:30:05;;;;;;;22.48;12.35;;;;;;;;;;4958951;29;20061;-92
2023/02/02 03:32:31;;;;;;;20.67;12.15;;;;;;;;;;4947785;28;20039;-92
2023/02/02 03:34:57;;;;;;;17.35;10.70;;;;;;;;;;4958723;29;20119;-91
2023/02/02 03:37:23;;;;;;;21.73;12.90;;;;;;;;;;4958720;29;20031;-91
2023/02/02 03:39:49;;;;;;;21.58;12.30;;;;;;;;;;4942034;29;20039;-92
2023/02/02 03:42:15;;;;;;;24.55;13.85;;;;;;;;;;4945899;28;20082;-91
2023/02/02 03:44:41;;;;;;;26.17;13.80;;;;;;;;;;4960872;28;20117;-91
2023/02/02 03:47:07;;;;;;;22.35;13.35;;;;;;;;;;4968356;28;20026;-91
2023/02/02 03:49:33;;;;;;;22.15;13.30;;;;;;;;;;4941059;29;20031;-91
2023/02/02 03:52:01;;;;;;;25.70;14.25;;;;;;;;;;4969116;28;20027;-93
2023/02/02 03:54:27;;;;;;;22.77;13.25;;;;;;;;;;4947406;28;20078;-91
2023/02/02 03:59:57;;;;;;;20.98;12.57;;;;;;;;;;4958689;29;20058;-90
2023/02/02 04:02:24;;;;;;;22.17;13.02;;;;;;;;;;4941605;29;20035;-91
2023/02/02 04:04:50;;;;;;;25.77;13.88;;;;;;;;;;4899527;29;1248635;-91
2023/02/02 04:07:16;;;;;;;21.80;13.20;;;;;;;;;;4959514;29;20046;-90
2023/02/02 04:09:42;;;;;;;23.48;14.07;;;;;;;;;;4959496;29;20031;-91
2023/02/02 04:12:11;;;;;;;27.27;16.00;;;;;;;;;;4959295;29;20034;-89
2023/02/02 04:14:37;;;;;;;26.65;16.15;;;;;;;;;;4960999;28;20039;-92
2023/02/02 04:17:03;;;;;;;24.42;13.70;;;;;;;;;;4961325;28;20061;-90
2023/02/02 04:19:29;;;;;;;32.42;15.80;;;;;;;;;;4978465;28;20019;-90
2023/02/02 04:21:55;;;;;;;28.70;14.88;;;;;;;;;;4961213;28;20050;-90
2023/02/02 04:24:21;;;;;;;25.05;14.80;;;;;;;;;;4961607;28;20337;-90
2023/02/02 04:26:47;;;;;;;28.83;15.70;;;;;;;;;;4960791;28;20317;-91
2023/02/02 04:29:32;;;;;;;28.05;16.45;;;;;;;;;;4942244;29;20031;-91
2023/02/02 04:31:58;;;;;;;31.45;16.38;;;;;;;;;;4942090;29;20023;-92
2023/02/02 04:34:24;;;;;;;29.58;15.50;;;;;;;;;;4961920;28;20078;-90
2023/02/02 04:36:50;;;;;;;26.25;15.55;;;;;;;;;;4961843;28;20484;-89
2023/02/02 04:39:16;;;;;;;27.02;15.52;;;;;;;;;;4949894;29;20027;-89
2023/02/02 04:41:42;;;;;;;28.40;16.63;;;;;;;;;;4942221;29;20106;-88
2023/02/02 04:50:15;;;;;;;26.05;15.30;;;;;;;;;;4940097;29;20124;-88
2023/02/02 04:52:41;;;;;;;25.67;15.57;;;;;;;;;;4923104;29;20159;-88
2023/02/02 04:55:08;;;;;;;28.95;17.40;;;;;;;;;;4923107;29;20028;-88
2023/02/02 05:03:41;;;;;;;31.27;16.30;;;;;;;;;;4943168;29;20062;-89
2023/02/02 05:06:07;;;;;;;26.40;16.23;;;;;;;;;;4943055;29;20419;-88
2023/02/02 05:08:34;;;;;;;27.50;16.02;;;;;;;;;;4943139;29;20039;-88
2023/02/02 05:11:00;;;;;;;26.70;15.88;;;;;;;;;;4926465;29;20035;-88
2023/02/02 05:13:26;;;;;;;29.23;17.33;;;;;;;;;;4943251;29;20038;-88
2023/02/02 05:15:54;;;;;;;28.13;16.45;;;;;;;;;;4943312;29;20023;-88
2023/02/02 05:18:20;;;;;;;26.83;15.68;;;;;;;;;;4926277;29;20024;-88
2023/02/02 05:20:46;;;;;;;31.67;16.50;;;;;;;;;;4947179;29;20046;-87
2023/02/02 05:23:13;;;;;;;32.00;17.70;;;;;;;;;;4962332;29;20034;-88
2023/02/02 05:25:39;;;;;;;26.27;13.52;;;;;;;;;;4945183;29;20063;-88
2023/02/02 05:28:23;;;;;;;23.08;13.32;;;;;;;;;;4962160;29;20318;-87
2023/02/02 05:30:50;;;;;;;20.80;12.63;;;;;;;;;;4945033;29;20023;-88
2023/02/02 05:33:19;;;;;;;17.95;12.20;;;;;;;;;;4961745;29;20355;-88
2023/02/02 05:35:47;;;;;;;22.23;12.05;;;;;;;;;;4961893;29;20070;-89
2023/02/02 05:38:13;;;;;;;18.55;12.25;;;;;;;;;;4944889;29;20046;-90
2023/02/02 05:40:39;;;;;;;20.90;12.98;;;;;;;;;;4961778;29;20428;-88
2023/02/02 05:43:05;;;;;;;21.70;13.50;;;;;;;;;;4945171;29;20406;-89
2023/02/02 05:45:31;;;;;;;20.85;12.88;;;;;;;;;;4944893;29;20066;-88
2023/02/02 05:47:58;;;;;;;23.38;13.13;;;;;;;;;;4944676;29;20444;-89
2023/02/02 05:50:24;;;;;;;23.90;13.52;;;;;;;;;;4961943;29;20023;-88
2023/02/02 05:52:50;;;;;;;23.42;13.63;;;;;;;;;;4961507;29;20055;-88
2023/02/02 05:55:17;;;;;;;20.10;10.93;;;;;;;;;;4961788;29;20028;-88
2023/02/02 05:57:44;;;;;;;23.70;12.10;;;;;;;;;;4961795;29;20031;-88
2023/02/02 06:00:11;;;;;;;19.58;11.70;;;;;;;;;;4961390;29;20023;-89
2023/02/02 06:02:37;;;;;;;16.08;10.48;;;;;;;;;;4961164;29;20441;-88
2023/02/02 06:05:03;;;;;;;18.67;10.10;;;;;;;;;;4961173;29;20047;-88
2023/02/02 06:07:29;;;;;;;15.80;9.00;;;;;;;;;;4961238;29;20028;-88
2023/02/02 06:09:55;;;;;;;12.13;6.75;;;;;;;;;;4960951;29;20031;-88
2023/02/02 06:12:21;;;;;;;10.23;5.65;;;;;;;;;;4958092;29;20030;-89
2023/02/02 06:15:06;;;;;;;6.80;4.28;;;;;;;;;;4961301;29;20031;-88
2023/02/02 06:17:32;;;;;;;8.18;3.88;;;;;;;;;;4944273;29;20418;-88
2023/02/02 06:19:58;;;;;;;4.50;2.63;;;;;;;;;;4960961;29;20402;-88
2023/02/02 06:22:24;;;;;;;9.52;4.13;;;;;;;;;;4944056;29;20019;-89
2023/02/02 06:24:52;;;;;;;12.63;5.38;;;;;;;;;;4944055;29;20122;-89
2023/02/02 06:27:18;;;;;;;9.05;5.13;;;;;;;;;;4944036;29;20023;-88
2023/02/02 06:32:48;;;;;;;7.90;5.00;;;;;;;;;;4961062;29;20049;-89
2023/02/02 06:35:14;;;;;;;8.30;6.60;;;;;;;;;;4944087;29;20031;-88
2023/02/02 06:37:40;;;;;;;13.07;7.82;;;;;;;;;;4960603;29;20031;-88
2023/02/02 06:40:07;;;;;;;7.18;5.78;;;;;;;;;;4960598;29;20019;-88
2023/02/02 06:42:33;;;;;;;24.52;17.83;;;;;;;;;;4960537;29;20023;-88
2023/02/02 06:44:59;;;;;;;19.75;13.95;;;;;;;;;;4960732;29;20025;-88
2023/02/02 06:47:25;;;;;;;6.05;3.58;;;;;;;;;;4959539;29;20027;-89
2023/02/02 06:49:51;;;;;;;6.93;3.85;;;;;;;;;;4943666;29;20090;-89
2023/02/02 06:52:17;;;;;;;9.45;5.80;;;;;;;;;;4943762;28;20038;-89
2023/02/02 06:54:43;;;;;;;30.33;14.77;;;;;;;;;;4960544;29;20035;-88
2023/02/02 06:57:09;;;;;;;24.48;13.30;;;;;;;;;;4943491;29;20023;-88
2023/02/02 06:59:35;;;;;;;42.90;24.90;;;;;;;;;;4943611;29;20334;-89
2023/02/02 07:02:02;;;;;;;101.63;59.95;;;;;;;;;;4943272;29;20047;-89
2023/02/02 07:04:28;;;;;;;48.90;28.02;;;;;;;;;;4960281;29;20051;-89
2023/02/02 07:06:54;;;;;;;24.77;11.23;;;;;;;;;;4943212;29;20023;-89
2023/02/02 07:09:20;;;;;;;11.90;5.82;;;;;;;;;;4943506;29;20047;-88
2023/02/02 07:11:46;;;;;;;9.50;5.35;;;;;;;;;;4960190;29;20038;-89
2023/02/02 07:14:12;;;;;;;8.45;5.30;;;;;;;;;;4959988;29;20031;-88
2023/02/02 07:16:38;;;;;;;7.70;5.07;;;;;;;;;;4959967;29;20449;-89
2023/02/02 07:19:04;;;;;;;8.50;4.88;;;;;;;;;;4943114;29;20441;-88
2023/02/02 07:21:34;;;;;;;10.23;4.70;;;;;;;;;;4943022;29;20094;-89
2023/02/02 07:24:01;;;;;;;20.85;9.27;;;;;;;;;;4942851;29;20026;-89
2023/02/02 07:26:27;;;;;;;20.92;9.23;;;;;;;;;;4959900;29;20031;-89
2023/02/02 07:28:54;;;;;;;21.85;11.10;;;;;;;;;;4960024;29;20031;-88
2023/02/02 07:31:20;;;;;;;17.90;9.00;;;;;;;;;;4959930;29;20086;-89
2023/02/02 07:33:46;;;;;;;15.73;8.30;;;;;;;;;;4959839;29;20430;-89
2023/02/02 07:36:16;;;;;;;16.33;7.43;;;;;;;;;;4959890;29;20363;-89
2023/02/02 07:38:43;;;;;;;16.23;8.35;;;;;;;;;;4959550;29;20027;-90
2023/02/02 07:41:10;;;;;;;17.73;8.65;;;;;;;;;;4959449;29;20358;-89
2023/02/02 07:43:36;;;;;;;10.25;4.22;;;;;;;;;;4959610;29;20422;-89
2023/02/02 07:46:05;;;;;;;11.13;5.35;;;;;;;;;;4959865;29;20035;-89
2023/02/02 07:48:31;;;;;;;9.88;5.65;;;;;;;;;;4959679;29;20039;-89
2023/02/02 07:51:01;;;;;;;15.23;8.27;;;;;;;;;;4959854;29;20433;-89
2023/02/02 07:53:27;;;;;;;27.10;10.23;;;;;;;;;;4959579;29;20030;-89
2023/02/02 07:55:53;;;;;;;27.55;11.25;;;;;;;;;;4959331;29;20031;-91
2023/02/02 07:58:19;;;;;;;26.63;10.40;;;;;;;;;;4959740;29;20050;-89
2023/02/02 08:00:45;;;;;;;21.15;9.90;;;;;;;;;;4942625;29;20098;-87
2023/02/02 08:03:11;;;;;;;22.02;9.52;;;;;;;;;;4959539;29;20070;-88
2023/02/02 08:05:37;;;;;;;18.05;7.10;;;;;;;;;;4959395;29;20055;-88
2023/02/02 08:08:03;;;;;;;9.88;5.28;;;;;;;;;;4942573;29;20122;-89
2023/02/02 08:10:29;;;;;;;15.23;7.07;;;;;;;;;;4959829;29;20024;-88
2023/02/02 08:12:56;;;;;;;14.10;6.30;;;;;;;;;;4942411;29;20035;-88
2023/02/02 08:15:22;;;;;;;8.43;4.20;;;;;;;;;;4942473;29;20066;-88
2023/02/02 08:17:48;;;;;;;9.63;3.58;;;;;;;;;;4959299;29;20038;-88
2023/02/02 08:20:15;;;;;;;10.02;4.10;;;;;;;;;;4959283;29;20027;-89
2023/02/02 08:22:41;;;;;;;11.32;4.53;;;;;;;;;;4959333;29;20032;-88
2023/02/02 08:25:07;;;;;;;6.30;3.47;;;;;;;;;;4959415;29;20102;-87
2023/02/02 08:27:33;;;;;;;9.80;3.75;;;;;;;;;;4959005;29;20031;-89
2023/02/02 08:33:03;;;;;;;16.98;6.45;;;;;;;;;;4959230;29;20042;-89
2023/02/02 08:35:29;;;;;;;13.18;6.60;;;;;;;;;;4961743;28;20049;-89
2023/02/02 08:37:55;;;;;;;10.98;4.78;;;;;;;;;;4946046;29;20034;-88
2023/02/02 08:40:21;;;;;;;9.73;4.80;;;;;;;;;;4962977;29;20027;-87
2023/02/02 08:42:52;;;;;;;6.72;2.95;;;;;;;;;;4962755;29;20023;-88
2023/02/02 08:45:18;;;;;;;7.30;3.50;;;;;;;;;;4946284;29;20117;-89
2023/02/02 08:47:44;;;;;;;14.35;5.90;;;;;;;;;;4945791;29;20046;-88
2023/02/02 08:50:10;;;;;;;7.50;4.13;;;;;;;;;;4962578;29;20105;-88
2023/02/02 08:52:36;;;;;;;6.88;3.20;;;;;;;;;;4945771;29;20038;-87
2023/02/02 08:55:03;;;;;;;8.05;3.30;;;;;;;;;;4945923;29;20063;-88
2023/02/02 08:57:31;;;;;;;6.60;2.63;;;;;;;;;;4962665;29;20042;-88
2023/02/02 08:59:57;;;;;;;9.35;3.55;;;;;;;;;;4945440;29;20042;-88
2023/02/02 09:02:23;;;;;;;8.95;4.18;;;;;;;;;;4962682;29;20035;-88
2023/02/02 09:04:49;;;;;;;8.85;3.42;;;;;;;;;;4942459;29;20090;-88
2023/02/02 09:07:15;;;;;;;14.35;4.28;;;;;;;;;;4943407;29;20106;-88
2023/02/02 09:09:41;;;;;;;11.75;4.85;;;;;;;;;;4943314;29;20346;-87
2023/02/02 09:12:07;;;;;;;14.75;5.93;;;;;;;;;;4941465;29;20102;-88
2023/02/02 09:14:33;;;;;;;22.02;6.60;;;;;;;;;;4941933;29;20043;-88
2023/02/02 09:17:00;;;;;;;12.18;4.85;;;;;;;;;;4942840;29;20075;-87
2023/02/02 09:19:26;;;;;;;7.47;3.30;;;;;;;;;;4941397;29;20032;-88
2023/02/02 09:21:52;;;;;;;8.50;3.80;;;;;;;;;;4943270;29;20044;-88
2023/02/02 09:24:18;;;;;;;9.50;3.95;;;;;;;;;;4941554;29;20040;-88
2023/02/02 09:26:44;;;;;;;13.15;4.13;;;;;;;;;;4942931;29;20035;-88
2023/02/02 09:29:12;;;;;;;10.65;4.40;;;;;;;;;;4942407;29;20109;-88
2023/02/02 09:31:38;;;;;;;9.65;3.53;;;;;;;;;;4941870;29;20024;-88
2023/02/02 09:34:06;;;;;;;7.75;3.65;;;;;;;;;;4942661;29;20024;-88
2023/02/02 09:36:33;;;;;;;8.52;3.05;;;;;;;;;;4941649;29;20039;-89
2023/02/02 09:38:59;;;;;;;4.15;2.05;;;;;;;;;;4942689;29;20072;-89
2023/02/02 09:41:28;;;;;;;7.07;2.55;;;;;;;;;;4942604;29;20079;-88
2023/02/02 09:44:13;;;;;;;8.18;3.20;;;;;;;;;;4940945;29;20433;-89
2023/02/02 09:46:39;;;;;;;5.68;2.58;;;;;;;;;;4941201;29;20075;-88
2023/02/02 09:49:07;;;;;;;5.07;2.25;;;;;;;;;;4942397;29;20063;-89
2023/02/02 09:51:41;;;;;;;9.43;2.75;;;;;;;;;;4942455;29;20032;-90
2023/02/02 09:54:21;;;;;;;12.38;3.95;;;;;;;;;;4942293;29;20367;-87
2023/02/02 09:56:54;;;;;;;9.63;4.07;;;;;;;;;;4936459;29;20427;-89
2023/02/02 09:59:27;;;;;;;8.82;4.75;;;;;;;;;;4924058;29;20067;-87
2023/02/02 10:01:55;;;;;;;14.88;6.25;;;;;;;;;;4942473;29;20103;-88
2023/02/02 10:04:27;;;;;;;18.65;7.95;;;;;;;;;;4941248;29;20383;-88
2023/02/02 10:06:54;;;;;;;19.83;8.98;;;;;;;;;;4941464;29;20111;-89
2023/02/02 10:09:26;;;;;;;17.20;7.30;;;;;;;;;;4942366;29;20044;-87
2023/02/02 10:12:11;;;;;;;15.95;6.28;;;;;;;;;;4934673;29;20075;-88
2023/02/02 10:14:44;;;;;;;25.80;8.90;;;;;;;;;;4941784;29;20419;-87
2023/02/02 10:17:29;;;;;;;18.40;8.50;;;;;;;;;;4934193;29;20031;-87
2023/02/02 10:20:00;;;;;;;14.93;6.28;;;;;;;;;;4921894;29;20075;-87
2023/02/02 10:22:28;;;;;;;10.73;5.38;;;;;;;;;;4922939;29;20032;-87
2023/02/02 10:24:57;;;;;;;12.77;6.22;;;;;;;;;;4922956;29;20028;-87
2023/02/02 10:27:32;;;;;;;11.73;6.13;;;;;;;;;;4922566;29;20446;-86
2023/02/02 10:30:25;;;;;;;14.32;7.43;;;;;;;;;;4922747;29;20039;-88
2023/02/02 10:32:56;;;;;;;17.08;7.88;;;;;;;;;;4922683;29;20036;-87
2023/02/02 10:35:39;;;;;;;16.40;6.53;;;;;;;;;;4922905;29;20040;-87
2023/02/02 10:38:05;;;;;;;;;;;;;;;;;;4932870;29;20031;-89
2023/02/02 10:40:31;;;;;;;17.70;7.93;;;;;;;;;;4941372;29;19918;-87
2023/02/02 10:46:02;;;;;;;25.20;9.75;;;;;;;;;;4939137;29;20059;-88
2023/02/02 10:48:37;;;;;;;21.60;9.68;;;;;;;;;;4922291;29;20032;-87
2023/02/02 10:51:10;;;;;;;13.05;5.80;;;;;;;;;;4922370;29;20434;-87
2023/02/02 10:53:37;;;;;;;11.70;4.80;;;;;;;;;;4922358;29;20036;-86
2023/02/02 10:56:07;;;;;;;13.10;5.45;;;;;;;;;;4922246;29;20099;-87
2023/02/02 10:58:40;;;;;;;10.32;5.80;;;;;;;;;;4921872;29;20032;-88
2023/02/02 11:01:10;;;;;;;9.05;4.28;;;;;;;;;;4922489;29;20044;-87
2023/02/02 11:03:37;;;;;;;10.82;5.43;;;;;;;;;;4920993;29;20103;-87
2023/02/02 11:08:58;;;;;;;9.98;4.07;;;;;;;;;;4922269;29;20046;-87
2023/02/02 11:11:53;;;;;;;9.75;4.05;;;;;;;;;;4922003;29;20387;-87
2023/02/02 11:14:39;;;;;;;8.65;3.80;;;;;;;;;;4864132;29;20033;-87
2023/02/02 11:17:06;;;;;;;9.57;4.30;;;;;;;;;;4882490;29;20041;-87
2023/02/02 11:19:33;;;;;;;8.55;3.05;;;;;;;;;;4867077;29;20033;-87
2023/02/02 11:22:02;;;;;;;13.30;4.22;;;;;;;;;;4882788;29;20037;-86
2023/02/02 11:24:29;;;;;;;11.85;3.63;;;;;;;;;;4882656;29;20041;-86
2023/02/02 11:26:59;;;;;;;8.98;3.80;;;;;;;;;;4882558;29;20324;-88
2023/02/02 11:29:36;;;;;;;9.45;4.00;;;;;;;;;;4882217;29;20029;-87
2023/02/02 11:32:17;;;;;;;6.32;3.25;;;;;;;;;;4882490;29;20341;-88
2023/02/02 11:34:43;;;;;;;21.35;9.63;;;;;;;;;;4882377;29;20036;-86
2023/02/02 11:37:14;;;;;;;7.32;3.78;;;;;;;;;;4882125;29;20041;-87
2023/02/02 11:39:41;;;;;;;9.98;3.90;;;;;;;;;;4882458;29;20066;-87
2023/02/02 11:42:17;;;;;;;10.40;3.50;;;;;;;;;;4866517;29;20085;-88
2023/02/02 11:44:46;;;;;;;8.65;3.63;;;;;;;;;;4882223;29;20029;-87
2023/02/02 11:47:32;;;;;;;7.25;3.80;;;;;;;;;;4882921;29;20033;-93
2023/02/02 11:49:59;;;;;;;8.27;4.80;;;;;;;;;;4891472;29;20033;-93
2023/02/02 11:52:26;;;;;;;13.75;5.57;;;;;;;;;;4920782;29;20032;-93
2023/02/02 11:54:55;;;;;;;6.38;3.60;;;;;;;;;;4921664;29;20028;-93
2023/02/02 11:57:22;;;;;;;10.05;3.67;;;;;;;;;;4921401;29;20032;-94
2023/02/02 12:00:05;;;;;;;4.75;2.42;;;;;;;;;;4920231;29;20435;-94
2023/02/02 12:02:32;;;;;;;10.73;4.60;;;;;;;;;;4920481;29;20028;-96
2023/02/02 12:05:17;;;;;;;6.90;2.75;;;;;;;;;;4920608;29;20338;-96
2023/02/02 12:07:43;;;;;;;6.63;3.35;;;;;;;;;;4920426;29;20032;-93
2023/02/02 12:10:13;;;;;;;8.50;3.20;;;;;;;;;;4922447;29;20036;-93
2023/02/02 12:12:39;;;;;;;6.15;2.95;;;;;;;;;;4925089;29;20043;-92
2023/02/02 12:15:28;;;;;;;7.93;3.05;;;;;;;;;;4925245;29;20028;-92
2023/02/02 12:18:05;;;;;;;7.22;3.45;;;;;;;;;;4867400;29;20049;-92
2023/02/02 12:20:32;;;;;;;7.65;3.28;;;;;;;;;;4867201;29;20070;-93
2023/02/02 12:22:58;;;;;;;7.88;3.08;;;;;;;;;;4867356;29;20061;-92
2023/02/02 12:25:37;;;;;;;11.98;4.22;;;;;;;;;;4867227;29;20037;-92
2023/02/02 12:28:11;;;;;;;8.57;3.55;;;;;;;;;;4867196;29;20035;-92
2023/02/02 12:30:39;;;;;;;10.70;3.92;;;;;;;;;;4867029;29;20117;-92
2023/02/02 12:33:13;;;;;;;10.15;4.10;;;;;;;;;;4867031;29;20061;-92
2023/02/02 12:35:57;;;;;;;5.32;2.53;;;;;;;;;;4866868;29;20429;-92
2023/02/02 12:38:29;;;;;;;5.93;2.72;;;;;;;;;;4866686;29;20062;-91
2023/02/02 12:41:13;;;;;;;15.23;7.38;;;;;;;;;;4877459;29;20032;-91
2023/02/02 12:43:41;;;;;;;10.82;4.85;;;;;;;;;;4888687;29;20111;-92
2023/02/02 12:46:26;;;;;;;6.70;2.63;;;;;;;;;;4888401;29;20030;-92
2023/02/02 12:49:06;;;;;;;6.22;2.10;;;;;;;;;;4887968;29;20051;-93
2023/02/02 12:51:40;;;;;;;9.35;3.90;;;;;;;;;;4903755;29;20032;-92
2023/02/02 12:54:25;;;;;;;10.32;6.72;;;;;;;;;;4911144;29;20046;-92
2023/02/02 12:56:58;;;;;;;18.48;13.00;;;;;;;;;;4943517;29;20036;-93
2023/02/02 12:59:48;;;;;;;23.80;17.08;;;;;;;;;;4942355;29;20032;-91
2023/02/02 13:02:46;;;;;;;9.63;5.90;;;;;;;;;;4943320;29;20390;-92
2023/02/02 13:05:48;;;;;;;18.60;16.00;;;;;;;;;;4884978;29;20079;-93
2023/02/02 13:08:17;;;;;;;6.78;3.55;;;;;;;;;;4847722;29;20040;-91
2023/02/02 13:10:45;;;;;;;7.40;2.58;;;;;;;;;;4848010;29;20038;-92
2023/02/02 13:13:11;;;;;;;8.65;3.40;;;;;;;;;;4847996;29;20034;-91
2023/02/02 13:15:40;;;;;;;11.30;5.05;;;;;;;;;;4848044;29;20061;-92
2023/02/02 13:18:10;;;;;;;9.45;3.47;;;;;;;;;;4847867;29;20037;-91
2023/02/02 13:20:51;;;;;;;7.32;3.60;;;;;;;;;;4847606;29;20088;-92
2023/02/02 13:23:27;;;;;;;19.97;7.03;;;;;;;;;;4847918;29;20069;-92
2023/02/02 13:26:02;;;;;;;8.63;3.85;;;;;;;;;;4847716;29;20064;-92
2023/02/02 13:28:35;;;;;;;13.98;3.97;;;;;;;;;;4847587;29;20046;-91
2023/02/02 13:31:02;;;;;;;10.57;5.70;;;;;;;;;;4847664;29;20041;-92
2023/02/02 13:33:30;;;;;;;8.20;3.53;;;;;;;;;;4847336;29;20066;-91
2023/02/02 13:36:16;;;;;;;10.35;4.45;;;;;;;;;;4847632;29;20038;-93
2023/02/02 13:38:44;;;;;;;12.10;4.65;;;;;;;;;;4792905;30;20050;-93
2023/02/02 13:41:12;;;;;;;12.57;3.75;;;;;;;;;;4798116;29;20145;-92
2023/02/02 13:43:56;;;;;;;17.45;5.78;;;;;;;;;;4847332;29;20125;-92
2023/02/02 13:46:22;;;;;;;17.20;5.38;;;;;;;;;;4847112;29;20046;-92
2023/02/02 13:48:51;;;;;;;11.65;3.90;;;;;;;;;;4821849;29;20410;-94
2023/02/02 13:51:36;;;;;;;15.73;4.60;;;;;;;;;;4821745;29;20447;-80
2023/02/02 13:54:05;;;;;;;7.95;3.08;;;;;;;;;;4827632;29;20069;-79
2023/02/02 13:56:34;;;;;;;15.00;5.55;;;;;;;;;;4829729;29;20042;-80
2023/02/02 13:59:19;;;;;;;14.18;4.10;;;;;;;;;;4825138;29;20034;-82
2023/02/02 14:01:48;;;;;;;13.98;4.85;;;;;;;;;;4828042;29;20030;-81
2023/02/02 14:04:25;;;;;;;17.63;6.63;;;;;;;;;;4827580;29;20107;-80
2023/02/02 14:06:56;;;;;;;13.60;4.75;;;;;;;;;;4826155;29;20042;-78
2023/02/02 14:09:25;;;;;;;18.67;5.18;;;;;;;;;;4812631;29;20339;-80
2023/02/02 14:11:54;;;;;;;18.52;5.90;;;;;;;;;;4827843;29;20055;-80
2023/02/02 14:14:38;;;;;;;15.23;4.65;;;;;;;;;;4827821;29;20030;-80
2023/02/02 14:17:15;;;;;;;10.73;4.82;;;;;;;;;;4941339;29;20032;-80
2023/02/02 14:19:50;;;;;;;8.90;3.35;;;;;;;;;;4941329;29;20035;-80
2023/02/02 14:22:18;;;;;;;5.80;2.22;;;;;;;;;;4941550;29;20028;-80
2023/02/02 14:24:44;;;;;;;6.30;2.75;;;;;;;;;;4941234;29;20027;-80
2023/02/02 14:27:10;;;;;;;6.72;2.53;;;;;;;;;;4939903;29;20063;-78
2023/02/02 14:29:39;;;;;;;4.80;2.45;;;;;;;;;;4941102;29;20031;-79
2023/02/02 14:32:11;;;;;;;5.97;2.38;;;;;;;;;;4940283;29;20027;-80
2023/02/02 14:34:41;;;;;;;7.22;2.97;;;;;;;;;;4940974;29;20039;-79
2023/02/02 14:37:16;;;;;;;5.75;2.20;;;;;;;;;;4941045;29;20035;-80
2023/02/02 14:40:03;;;;;;;2.55;1.30;;;;;;;;;;4940794;29;20438;-79
2023/02/02 14:45:27;;;;;;;56.13;17.92;;;;;;;;;;4940947;29;20056;-80
2023/02/02 14:48:00;;;;;;;8.63;3.20;;;;;;;;;;4939357;29;20090;-80
2023/02/02 14:50:26;;;;;;;;;;;;;;;;;;4941394;29;20039;-80
2023/02/02 14:53:00;;;;;;;7.32;3.70;;;;;;;;;;4940789;29;20213;-79
2023/02/02 14:55:27;;;;;;;20.10;12.68;;;;;;;;;;4940418;29;20035;-80
2023/02/02 14:58:03;;;;;;;17.95;9.48;;;;;;;;;;4940645;29;20529;-80
2023/02/02 15:00:31;;;;;;;9.77;4.93;;;;;;;;;;4940597;29;20031;-79
2023/02/02 15:03:17;;;;;;;17.05;8.35;;;;;;;;;;4940667;29;20307;-80
2023/02/02 15:05:45;;;;;;;12.23;5.60;;;;;;;;;;4939310;29;20082;-86
2023/02/02 15:08:20;;;;;;;17.58;7.90;;;;;;;;;;4933846;29;20031;-80
2023/02/02 15:10:52;;;;;;;18.15;8.38;;;;;;;;;;4940622;29;20032;-80
2023/02/02 15:13:18;;;;;;;29.88;10.65;;;;;;;;;;4940149;29;20030;-80
2023/02/02 15:15:46;;;;;;;29.13;12.82;;;;;;;;;;4939137;29;20036;-80
2023/02/02 15:18:18;;;;;;;34.38;15.82;;;;;;;;;;4940178;29;20038;-79
2023/02/02 15:20:48;;;;;;;114.15;38.50;;;;;;;;;;4940218;29;20046;-80
2023/02/02 15:23:18;;;;;;;96.35;34.05;;;;;;;;;;4939055;29;20035;-79
2023/02/02 15:25:45;;;;;;;105.82;32.45;;;;;;;;;;4940283;29;20038;-80
2023/02/02 15:28:25;;;;;;;99.65;32.28;;;;;;;;;;4939895;29;20043;-80
2023/02/02 15:30:58;;;;;;;85.07;27.92;;;;;;;;;;4938635;29;20422;-80
2023/02/02 15:33:29;;;;;;;46.60;19.60;;;;;;;;;;4957902;29;20035;-80
2023/02/02 15:35:57;;;;;;;46.67;16.98;;;;;;;;;;4959376;29;20034;-81
2023/02/02 15:38:26;;;;;;;32.67;12.85;;;;;;;;;;4957916;28;20313;-79